EDV5437 KLGA-KCHS
Flight info
| Callsign | EDV5437 |
|---|---|
| Flight time | 1h 39m |
| Altitude | 34000 |
| Route | WHITE Q409 CRPLR DFENC Q109 JOHAR AMYLU AMYLU3 |
| Aircraft | CRJ9/M-V/N |
Departure
| Time | 2026-05-08 21:59 |
|---|---|
| Airport | LaGuardia Airport (KLGA) |
Arrival
| Time | 2026-05-08 23:38 |
|---|---|
| Airport | Charleston International Airport (KCHS) |
| Time | Latitude | Longitude | Altitude | Speed | Heading |
|---|---|---|---|---|---|
| 2026-05-08 21:42 | 40.77082 | -73.86255 | 17 ft | 0 kts | 313° |
| 2026-05-08 21:50 | 40.77074 | -73.86243 | 18 ft | 2 kts | 312° |
| 2026-05-08 21:50 | 40.77063 | -73.86227 | 17 ft | 2 kts | 312° |
| 2026-05-08 21:50 | 40.77049 | -73.86219 | 19 ft | 2 kts | 24° |
| 2026-05-08 21:51 | 40.77042 | -73.86226 | 17 ft | 2 kts | 42° |
| 2026-05-08 21:51 | 40.77054 | -73.86211 | 18 ft | 2 kts | 42° |
| 2026-05-08 21:51 | 40.77056 | -73.86209 | 18 ft | 0 kts | 42° |
| 2026-05-08 21:54 | 40.77068 | -73.86195 | 16 ft | 3 kts | 41° |
| 2026-05-08 21:54 | 40.77084 | -73.86176 | 16 ft | 4 kts | 41° |
| 2026-05-08 21:54 | 40.77103 | -73.86154 | 16 ft | 4 kts | 41° |
| 2026-05-08 21:54 | 40.77124 | -73.86129 | 16 ft | 4 kts | 43° |
| 2026-05-08 21:55 | 40.77136 | -73.86114 | 17 ft | 0 kts | 43° |
| 2026-05-08 21:55 | 40.77155 | -73.86092 | 16 ft | 8 kts | 44° |
| 2026-05-08 21:56 | 40.77141 | -73.85966 | 16 ft | 8 kts | 120° |
| 2026-05-08 21:56 | 40.77112 | -73.85906 | 17 ft | 8 kts | 123° |
| 2026-05-08 21:56 | 40.77118 | -73.85849 | 18 ft | 7 kts | 53° |
| 2026-05-08 21:56 | 40.77150 | -73.85802 | 17 ft | 5 kts | 47° |
| 2026-05-08 21:57 | 40.77150 | -73.85801 | 17 ft | 0 kts | 47° |
| 2026-05-08 21:57 | 40.77153 | -73.85797 | 15 ft | 3 kts | 47° |
| 2026-05-08 21:57 | 40.77175 | -73.85767 | 15 ft | 6 kts | 43° |
| 2026-05-08 21:57 | 40.77211 | -73.85743 | 15 ft | 5 kts | 346° |
| 2026-05-08 21:58 | 40.77243 | -73.85784 | 16 ft | 11 kts | 308° |
| 2026-05-08 21:58 | 40.77258 | -73.85816 | 16 ft | 8 kts | 301° |
| 2026-05-08 21:58 | 40.77397 | -73.86107 | 16 ft | 74 kts | 301° |
| 2026-05-08 21:58 | 40.77799 | -73.86954 | 18 ft | 137 kts | 302° |
| 2026-05-08 21:59 | 40.78353 | -73.88110 | 316 ft | 149 kts | 301° |
| 2026-05-08 21:59 | 40.79154 | -73.88981 | 911 ft | 160 kts | 345° |
| 2026-05-08 21:59 | 40.80283 | -73.89303 | 1453 ft | 173 kts | 341° |
| 2026-05-08 21:59 | 40.81485 | -73.89690 | 2015 ft | 187 kts | 341° |
| 2026-05-08 22:00 | 40.82791 | -73.90084 | 2636 ft | 206 kts | 342° |
| 2026-05-08 22:00 | 40.84247 | -73.90650 | 3084 ft | 228 kts | 325° |
| 2026-05-08 22:00 | 40.85206 | -73.92154 | 3515 ft | 219 kts | 285° |
| 2026-05-08 22:00 | 40.85269 | -73.93463 | 3806 ft | 215 kts | 257° |
| 2026-05-08 22:01 | 40.84430 | -73.95040 | 4475 ft | 221 kts | 214° |
| 2026-05-08 22:01 | 40.82894 | -73.95615 | 5153 ft | 238 kts | 193° |
| 2026-05-08 22:01 | 40.81208 | -73.95835 | 5818 ft | 248 kts | 189° |
| 2026-05-08 22:01 | 40.79436 | -73.95966 | 6462 ft | 259 kts | 188° |
| 2026-05-08 22:02 | 40.77617 | -73.96054 | 7069 ft | 269 kts | 187° |
| 2026-05-08 22:02 | 40.75730 | -73.96113 | 7693 ft | 265 kts | 187° |
| 2026-05-08 22:02 | 40.73902 | -73.96143 | 8228 ft | 265 kts | 187° |
| 2026-05-08 22:02 | 40.72044 | -73.96156 | 8736 ft | 267 kts | 187° |
| 2026-05-08 22:03 | 40.70180 | -73.96153 | 9247 ft | 268 kts | 187° |
| 2026-05-08 22:03 | 40.68315 | -73.96135 | 9744 ft | 268 kts | 187° |
| 2026-05-08 22:03 | 40.66473 | -73.96101 | 10198 ft | 267 kts | 187° |
| 2026-05-08 22:03 | 40.64571 | -73.96063 | 10582 ft | 283 kts | 188° |
| 2026-05-08 22:04 | 40.62520 | -73.96046 | 10980 ft | 304 kts | 187° |
| 2026-05-08 22:04 | 40.60411 | -73.96385 | 11396 ft | 307 kts | 205° |
| 2026-05-08 22:04 | 40.58324 | -73.97283 | 11826 ft | 324 kts | 207° |
| 2026-05-08 22:04 | 40.56167 | -73.98308 | 12256 ft | 342 kts | 208° |
| 2026-05-08 22:05 | 40.53856 | -73.99425 | 12703 ft | 363 kts | 208° |
| 2026-05-08 22:05 | 40.51415 | -74.00611 | 13151 ft | 385 kts | 208° |
| 2026-05-08 22:05 | 40.48825 | -74.01869 | 13592 ft | 407 kts | 208° |
| 2026-05-08 22:05 | 40.46111 | -74.03193 | 14000 ft | 421 kts | 208° |
| 2026-05-08 22:06 | 40.43451 | -74.04476 | 14465 ft | 394 kts | 209° |
| 2026-05-08 22:06 | 40.40868 | -74.05736 | 14973 ft | 399 kts | 209° |
| 2026-05-08 22:06 | 40.38226 | -74.07030 | 15506 ft | 408 kts | 209° |
| 2026-05-08 22:06 | 40.35540 | -74.08345 | 16052 ft | 415 kts | 208° |
| 2026-05-08 22:07 | 40.32876 | -74.09647 | 16590 ft | 403 kts | 209° |
| 2026-05-08 22:07 | 40.30263 | -74.10929 | 17134 ft | 400 kts | 209° |
| 2026-05-08 22:07 | 40.27666 | -74.12206 | 17685 ft | 396 kts | 209° |
| 2026-05-08 22:07 | 40.25097 | -74.13474 | 18239 ft | 392 kts | 209° |
| 2026-05-08 22:08 | 40.22556 | -74.14726 | 18702 ft | 387 kts | 209° |
| 2026-05-08 22:08 | 40.20050 | -74.15964 | 19196 ft | 381 kts | 210° |
| 2026-05-08 22:08 | 40.17617 | -74.17171 | 19686 ft | 376 kts | 210° |
| 2026-05-08 22:08 | 40.15153 | -74.18402 | 20203 ft | 379 kts | 210° |
| 2026-05-08 22:09 | 40.12679 | -74.19647 | 20727 ft | 380 kts | 211° |
| 2026-05-08 22:09 | 40.10208 | -74.20903 | 21269 ft | 381 kts | 211° |
| 2026-05-08 22:09 | 40.07809 | -74.22252 | 21809 ft | 377 kts | 215° |
| 2026-05-08 22:09 | 40.05332 | -74.23488 | 22376 ft | 385 kts | 207° |
| 2026-05-08 22:10 | 40.02755 | -74.24487 | 22909 ft | 381 kts | 210° |
| 2026-05-08 22:10 | 40.00398 | -74.25877 | 23468 ft | 369 kts | 218° |
| 2026-05-08 22:10 | 39.98143 | -74.27497 | 23717 ft | 369 kts | 222° |
| 2026-05-08 22:10 | 39.96001 | -74.29361 | 23840 ft | 372 kts | 226° |
| 2026-05-08 22:11 | 39.93924 | -74.31386 | 23901 ft | 380 kts | 227° |
| 2026-05-08 22:11 | 39.91790 | -74.33505 | 23927 ft | 391 kts | 227° |
| 2026-05-08 22:11 | 39.89612 | -74.35670 | 23952 ft | 393 kts | 226° |
| 2026-05-08 22:11 | 39.87408 | -74.37797 | 23954 ft | 395 kts | 226° |
| 2026-05-08 22:12 | 39.85176 | -74.39925 | 23950 ft | 397 kts | 225° |
| 2026-05-08 22:12 | 39.82957 | -74.42023 | 23931 ft | 399 kts | 226° |
| 2026-05-08 22:12 | 39.80788 | -74.44257 | 23941 ft | 393 kts | 231° |
| 2026-05-08 22:12 | 39.78824 | -74.46714 | 23949 ft | 390 kts | 234° |
| 2026-05-08 22:13 | 39.76982 | -74.49246 | 23952 ft | 390 kts | 236° |
| 2026-05-08 22:13 | 39.75115 | -74.51825 | 23950 ft | 391 kts | 235° |
| 2026-05-08 22:13 | 39.73241 | -74.54410 | 23950 ft | 392 kts | 235° |
| 2026-05-08 22:13 | 39.71338 | -74.56966 | 23957 ft | 394 kts | 234° |
| 2026-05-08 22:14 | 39.69417 | -74.59514 | 23955 ft | 395 kts | 234° |
| 2026-05-08 22:14 | 39.67486 | -74.62072 | 23959 ft | 396 kts | 234° |
| 2026-05-08 22:14 | 39.65574 | -74.64597 | 23955 ft | 397 kts | 234° |
| 2026-05-08 22:14 | 39.63633 | -74.67160 | 23961 ft | 398 kts | 234° |
| 2026-05-08 22:15 | 39.61687 | -74.69728 | 23958 ft | 399 kts | 234° |
| 2026-05-08 22:15 | 39.59729 | -74.72309 | 23961 ft | 399 kts | 234° |
| 2026-05-08 22:15 | 39.57795 | -74.74854 | 23961 ft | 400 kts | 234° |
| 2026-05-08 22:15 | 39.55840 | -74.77427 | 23958 ft | 401 kts | 234° |
| 2026-05-08 22:16 | 39.53872 | -74.80015 | 23986 ft | 400 kts | 234° |
| 2026-05-08 22:16 | 39.51925 | -74.82562 | 24464 ft | 397 kts | 234° |
| 2026-05-08 22:16 | 39.49995 | -74.85093 | 24930 ft | 400 kts | 234° |
| 2026-05-08 22:16 | 39.48032 | -74.87672 | 25376 ft | 402 kts | 234° |
| 2026-05-08 22:17 | 39.46047 | -74.90264 | 25871 ft | 404 kts | 234° |
| 2026-05-08 22:17 | 39.44088 | -74.92823 | 26366 ft | 404 kts | 234° |
| 2026-05-08 22:17 | 39.42104 | -74.95415 | 26872 ft | 404 kts | 234° |
| 2026-05-08 22:17 | 39.40148 | -74.97970 | 27387 ft | 404 kts | 235° |
| 2026-05-08 22:18 | 39.38186 | -75.00529 | 27903 ft | 403 kts | 235° |
| 2026-05-08 22:18 | 39.36213 | -75.03096 | 28421 ft | 401 kts | 235° |
| 2026-05-08 22:18 | 39.34249 | -75.05650 | 28961 ft | 399 kts | 235° |
| 2026-05-08 22:18 | 39.32294 | -75.08187 | 29513 ft | 396 kts | 236° |
| 2026-05-08 22:19 | 39.30350 | -75.10704 | 30062 ft | 393 kts | 235° |
| 2026-05-08 22:19 | 39.28424 | -75.13137 | 30468 ft | 390 kts | 235° |
| 2026-05-08 22:19 | 39.26479 | -75.15580 | 30946 ft | 386 kts | 235° |
| 2026-05-08 22:19 | 39.24560 | -75.17977 | 31447 ft | 382 kts | 235° |
| 2026-05-08 22:20 | 39.22661 | -75.20342 | 31921 ft | 377 kts | 235° |
| 2026-05-08 22:20 | 39.20810 | -75.22646 | 32411 ft | 372 kts | 236° |
| 2026-05-08 22:20 | 39.18934 | -75.24980 | 32916 ft | 367 kts | 236° |
| 2026-05-08 22:20 | 39.17136 | -75.27218 | 33409 ft | 361 kts | 236° |
| 2026-05-08 22:21 | 39.15327 | -75.29474 | 33724 ft | 361 kts | 236° |
| 2026-05-08 22:21 | 39.13517 | -75.31743 | 33847 ft | 364 kts | 236° |
| 2026-05-08 22:21 | 39.11709 | -75.34003 | 33904 ft | 369 kts | 236° |
| 2026-05-08 22:22 | 39.07694 | -75.38359 | 33933 ft | 400 kts | 221° |
| 2026-05-08 22:22 | 39.05052 | -75.39805 | 33958 ft | 419 kts | 214° |
| 2026-05-08 22:22 | 39.02316 | -75.41098 | 33976 ft | 421 kts | 214° |
| 2026-05-08 22:23 | 38.96863 | -75.43824 | 33972 ft | 422 kts | 216° |
| 2026-05-08 22:23 | 38.91378 | -75.46568 | 33970 ft | 438 kts | 206° |
| 2026-05-08 22:23 | 38.88304 | -75.46960 | 33946 ft | 461 kts | 193° |
| 2026-05-08 22:24 | 38.85075 | -75.46856 | 33973 ft | 463 kts | 192° |
| 2026-05-08 22:24 | 38.78730 | -75.47127 | 33983 ft | 447 kts | 200° |
| 2026-05-08 22:25 | 38.72601 | -75.48067 | 33984 ft | 445 kts | 201° |
| 2026-05-08 22:25 | 38.66434 | -75.48994 | 33969 ft | 446 kts | 200° |
| 2026-05-08 22:26 | 38.60282 | -75.49819 | 33995 ft | 447 kts | 200° |
| 2026-05-08 22:26 | 38.54083 | -75.50642 | 34001 ft | 446 kts | 200° |
| 2026-05-08 22:27 | 38.47940 | -75.51482 | 34001 ft | 446 kts | 200° |
| 2026-05-08 22:27 | 38.41753 | -75.52321 | 33973 ft | 446 kts | 200° |
| 2026-05-08 22:27 | 38.38694 | -75.52857 | 33985 ft | 435 kts | 207° |
| 2026-05-08 22:28 | 38.35868 | -75.54050 | 34002 ft | 423 kts | 214° |
| 2026-05-08 22:28 | 38.30449 | -75.56957 | 34009 ft | 422 kts | 217° |
| 2026-05-08 22:29 | 38.25397 | -75.60479 | 34009 ft | 408 kts | 226° |
| 2026-05-08 22:29 | 38.20800 | -75.64642 | 33994 ft | 406 kts | 228° |
| 2026-05-08 22:30 | 38.16155 | -75.68808 | 34016 ft | 408 kts | 227° |
| 2026-05-08 22:30 | 38.11487 | -75.72875 | 34017 ft | 409 kts | 226° |
| 2026-05-08 22:31 | 38.06778 | -75.76956 | 34028 ft | 409 kts | 226° |
| 2026-05-08 22:31 | 38.02060 | -75.81036 | 33976 ft | 409 kts | 227° |
| 2026-05-08 22:32 | 37.97390 | -75.85039 | 34013 ft | 406 kts | 227° |
| 2026-05-08 22:32 | 37.92717 | -75.89083 | 34022 ft | 405 kts | 227° |
| 2026-05-08 22:33 | 37.88054 | -75.93102 | 34022 ft | 405 kts | 227° |
| 2026-05-08 22:33 | 37.83415 | -75.97091 | 34014 ft | 405 kts | 227° |
| 2026-05-08 22:34 | 37.78749 | -76.01071 | 33989 ft | 402 kts | 227° |
| 2026-05-08 22:34 | 37.74128 | -76.05025 | 34010 ft | 399 kts | 228° |
| 2026-05-08 22:35 | 37.69564 | -76.08944 | 34016 ft | 398 kts | 228° |
| 2026-05-08 22:35 | 37.64958 | -76.12881 | 34020 ft | 398 kts | 228° |
| 2026-05-08 22:36 | 37.60184 | -76.16501 | 34015 ft | 410 kts | 221° |
| 2026-05-08 22:36 | 37.55024 | -76.19649 | 34027 ft | 414 kts | 219° |
| 2026-05-08 22:37 | 37.49722 | -76.22501 | 34019 ft | 416 kts | 218° |
| 2026-05-08 22:37 | 37.44398 | -76.25378 | 34024 ft | 415 kts | 218° |
| 2026-05-08 22:38 | 37.39114 | -76.28243 | 34022 ft | 415 kts | 218° |
| 2026-05-08 22:38 | 37.33795 | -76.31090 | 34025 ft | 414 kts | 219° |
| 2026-05-08 22:39 | 37.28516 | -76.33937 | 34033 ft | 413 kts | 219° |
| 2026-05-08 22:39 | 37.23250 | -76.36775 | 34024 ft | 413 kts | 219° |
| 2026-05-08 22:40 | 37.17988 | -76.39596 | 34074 ft | 408 kts | 219° |
| 2026-05-08 22:40 | 37.15435 | -76.40918 | 34199 ft | 377 kts | 219° |
| 2026-05-08 22:40 | 37.13118 | -76.42028 | 34232 ft | 335 kts | 220° |
| 2026-05-08 22:40 | 37.11062 | -76.43070 | 34149 ft | 301 kts | 223° |
| 2026-05-08 22:41 | 37.09250 | -76.44020 | 34084 ft | 274 kts | 225° |
| 2026-05-08 22:41 | 37.07574 | -76.44885 | 34025 ft | 240 kts | 227° |
| 2026-05-08 22:41 | 37.06117 | -76.45588 | 33967 ft | 211 kts | 229° |
| 2026-05-08 22:41 | 37.04803 | -76.46236 | 33925 ft | 196 kts | 231° |
| 2026-05-08 22:42 | 37.03533 | -76.46929 | 33294 ft | 212 kts | 231° |
| 2026-05-08 22:42 | 37.02143 | -76.47818 | 32621 ft | 228 kts | 230° |
| 2026-05-08 22:42 | 37.00746 | -76.48620 | 32924 ft | 219 kts | 229° |
| 2026-05-08 22:42 | 36.99325 | -76.49401 | 32591 ft | 230 kts | 228° |
| 2026-05-08 22:43 | 36.97815 | -76.50241 | 32304 ft | 241 kts | 227° |
| 2026-05-08 22:43 | 36.96248 | -76.51103 | 32210 ft | 249 kts | 226° |
| 2026-05-08 22:43 | 36.94656 | -76.51964 | 32142 ft | 255 kts | 225° |
| 2026-05-08 22:43 | 36.93002 | -76.52841 | 32090 ft | 260 kts | 225° |
| 2026-05-08 22:44 | 36.91319 | -76.53738 | 32087 ft | 265 kts | 225° |
| 2026-05-08 22:44 | 36.89612 | -76.54650 | 32142 ft | 269 kts | 225° |
| 2026-05-08 22:44 | 36.87871 | -76.55583 | 32158 ft | 275 kts | 225° |
| 2026-05-08 22:44 | 36.86096 | -76.56539 | 32079 ft | 284 kts | 224° |
| 2026-05-08 22:45 | 36.84261 | -76.57533 | 32098 ft | 291 kts | 224° |
| 2026-05-08 22:45 | 36.82375 | -76.58558 | 32094 ft | 300 kts | 223° |
| 2026-05-08 22:45 | 36.80419 | -76.59606 | 32092 ft | 309 kts | 223° |
| 2026-05-08 22:46 | 36.77067 | -76.61397 | 32083 ft | 325 kts | 222° |
| 2026-05-08 22:46 | 36.72772 | -76.63678 | 32081 ft | 345 kts | 221° |
| 2026-05-08 22:47 | 36.68222 | -76.66080 | 32067 ft | 364 kts | 220° |
| 2026-05-08 22:47 | 36.63456 | -76.68609 | 32064 ft | 383 kts | 220° |
| 2026-05-08 22:48 | 36.58436 | -76.71271 | 32057 ft | 401 kts | 219° |
| 2026-05-08 22:48 | 36.53195 | -76.74042 | 32051 ft | 416 kts | 219° |
| 2026-05-08 22:49 | 36.47923 | -76.76809 | 31991 ft | 413 kts | 219° |
| 2026-05-08 22:49 | 36.40005 | -76.80971 | 32020 ft | 413 kts | 219° |
| 2026-05-08 22:50 | 36.34687 | -76.83759 | 32023 ft | 414 kts | 219° |
| 2026-05-08 22:50 | 36.29374 | -76.86542 | 32023 ft | 414 kts | 219° |
| 2026-05-08 22:51 | 36.24100 | -76.89295 | 32007 ft | 412 kts | 219° |
| 2026-05-08 22:51 | 36.18803 | -76.92058 | 32022 ft | 412 kts | 219° |
| 2026-05-08 22:52 | 36.13525 | -76.94809 | 32022 ft | 412 kts | 219° |
| 2026-05-08 22:52 | 36.08259 | -76.97550 | 32030 ft | 412 kts | 219° |
| 2026-05-08 22:53 | 36.02962 | -77.00302 | 31962 ft | 412 kts | 218° |
| 2026-05-08 22:53 | 35.97707 | -77.03033 | 32015 ft | 411 kts | 218° |
| 2026-05-08 22:54 | 35.92568 | -77.06010 | 32022 ft | 397 kts | 225° |
| 2026-05-08 22:54 | 35.88033 | -77.09689 | 32029 ft | 388 kts | 230° |
| 2026-05-08 22:55 | 35.83832 | -77.13788 | 32036 ft | 382 kts | 232° |
| 2026-05-08 22:55 | 35.79727 | -77.17932 | 31999 ft | 382 kts | 232° |
| 2026-05-08 22:56 | 35.75588 | -77.22079 | 32020 ft | 383 kts | 231° |
| 2026-05-08 22:56 | 35.71438 | -77.26154 | 32030 ft | 384 kts | 231° |
| 2026-05-08 22:57 | 35.67247 | -77.30261 | 32021 ft | 384 kts | 231° |
| 2026-05-08 22:57 | 35.63080 | -77.34334 | 32022 ft | 384 kts | 231° |
| 2026-05-08 22:58 | 35.58884 | -77.38433 | 32022 ft | 384 kts | 231° |
| 2026-05-08 22:58 | 35.54737 | -77.42494 | 32001 ft | 384 kts | 230° |
| 2026-05-08 22:59 | 35.50535 | -77.46586 | 32022 ft | 385 kts | 230° |
| 2026-05-08 22:59 | 35.46365 | -77.50643 | 32042 ft | 385 kts | 230° |
| 2026-05-08 23:00 | 35.42151 | -77.54732 | 32043 ft | 385 kts | 230° |
| 2026-05-08 23:00 | 35.37939 | -77.58822 | 32043 ft | 385 kts | 230° |
| 2026-05-08 23:01 | 35.33751 | -77.62877 | 32050 ft | 385 kts | 230° |
| 2026-05-08 23:01 | 35.29552 | -77.66940 | 32052 ft | 385 kts | 230° |
| 2026-05-08 23:02 | 35.25339 | -77.71011 | 32046 ft | 385 kts | 230° |
| 2026-05-08 23:02 | 35.21116 | -77.75085 | 32041 ft | 385 kts | 230° |
| 2026-05-08 23:03 | 35.16929 | -77.79118 | 32041 ft | 385 kts | 230° |
| 2026-05-08 23:03 | 35.14823 | -77.81138 | 31758 ft | 378 kts | 230° |
| 2026-05-08 23:03 | 35.12771 | -77.83096 | 31437 ft | 368 kts | 230° |
| 2026-05-08 23:04 | 35.10796 | -77.84998 | 31168 ft | 362 kts | 230° |
| 2026-05-08 23:04 | 35.08825 | -77.86893 | 30888 ft | 356 kts | 231° |
| 2026-05-08 23:04 | 35.06910 | -77.88728 | 30626 ft | 351 kts | 231° |
| 2026-05-08 23:04 | 35.04997 | -77.90556 | 30363 ft | 347 kts | 231° |
| 2026-05-08 23:05 | 35.03099 | -77.92368 | 30091 ft | 343 kts | 231° |
| 2026-05-08 23:05 | 35.01232 | -77.94156 | 29785 ft | 339 kts | 231° |
| 2026-05-08 23:05 | 34.99405 | -77.95913 | 29512 ft | 336 kts | 232° |
| 2026-05-08 23:05 | 34.97564 | -77.97671 | 29209 ft | 334 kts | 232° |
| 2026-05-08 23:06 | 34.95730 | -77.99428 | 28918 ft | 332 kts | 232° |
| 2026-05-08 23:06 | 34.93939 | -78.01146 | 28627 ft | 330 kts | 231° |
| 2026-05-08 23:06 | 34.92130 | -78.02880 | 28340 ft | 328 kts | 231° |
| 2026-05-08 23:06 | 34.90340 | -78.04591 | 28115 ft | 323 kts | 231° |
| 2026-05-08 23:07 | 34.86799 | -78.07983 | 28067 ft | 337 kts | 230° |
| 2026-05-08 23:07 | 34.84910 | -78.09786 | 28086 ft | 351 kts | 229° |
| 2026-05-08 23:07 | 34.82954 | -78.11676 | 28094 ft | 365 kts | 229° |
| 2026-05-08 23:08 | 34.80951 | -78.13609 | 28099 ft | 378 kts | 229° |
| 2026-05-08 23:08 | 34.78837 | -78.15642 | 28097 ft | 392 kts | 229° |
| 2026-05-08 23:08 | 34.76666 | -78.17723 | 28097 ft | 404 kts | 228° |
| 2026-05-08 23:08 | 34.74427 | -78.19865 | 28092 ft | 413 kts | 228° |
| 2026-05-08 23:09 | 34.69968 | -78.24119 | 28076 ft | 404 kts | 228° |
| 2026-05-08 23:09 | 34.67758 | -78.26219 | 27994 ft | 402 kts | 227° |
| 2026-05-08 23:09 | 34.65571 | -78.28313 | 28021 ft | 399 kts | 227° |
| 2026-05-08 23:10 | 34.61221 | -78.32457 | 28036 ft | 394 kts | 227° |
| 2026-05-08 23:10 | 34.56943 | -78.36520 | 28042 ft | 391 kts | 227° |
| 2026-05-08 23:11 | 34.52650 | -78.40596 | 28043 ft | 389 kts | 227° |
| 2026-05-08 23:11 | 34.48387 | -78.44637 | 28045 ft | 387 kts | 227° |
| 2026-05-08 23:12 | 34.44160 | -78.48637 | 28021 ft | 386 kts | 227° |
| 2026-05-08 23:12 | 34.39949 | -78.52628 | 28046 ft | 386 kts | 227° |
| 2026-05-08 23:13 | 34.35711 | -78.56628 | 28057 ft | 385 kts | 227° |
| 2026-05-08 23:13 | 34.31560 | -78.60713 | 28061 ft | 381 kts | 231° |
| 2026-05-08 23:14 | 34.27828 | -78.65168 | 27869 ft | 382 kts | 233° |
| 2026-05-08 23:14 | 34.25984 | -78.67452 | 27476 ft | 374 kts | 233° |
| 2026-05-08 23:14 | 34.24174 | -78.69687 | 27057 ft | 367 kts | 233° |
| 2026-05-08 23:15 | 34.22403 | -78.71846 | 26655 ft | 362 kts | 233° |
| 2026-05-08 23:15 | 34.20628 | -78.73986 | 26228 ft | 357 kts | 232° |
| 2026-05-08 23:15 | 34.18866 | -78.76106 | 25830 ft | 354 kts | 232° |
| 2026-05-08 23:15 | 34.17146 | -78.78168 | 25454 ft | 351 kts | 232° |
| 2026-05-08 23:16 | 34.15402 | -78.80258 | 25122 ft | 355 kts | 232° |
| 2026-05-08 23:16 | 34.13612 | -78.82401 | 24805 ft | 364 kts | 232° |
| 2026-05-08 23:16 | 34.11816 | -78.84549 | 24500 ft | 371 kts | 232° |
| 2026-05-08 23:16 | 34.09965 | -78.86763 | 24203 ft | 378 kts | 232° |
| 2026-05-08 23:17 | 34.08079 | -78.89016 | 23898 ft | 384 kts | 231° |
| 2026-05-08 23:17 | 34.06158 | -78.91309 | 23595 ft | 390 kts | 231° |
| 2026-05-08 23:17 | 34.04212 | -78.93630 | 23234 ft | 395 kts | 231° |
| 2026-05-08 23:17 | 34.02243 | -78.95978 | 22878 ft | 400 kts | 231° |
| 2026-05-08 23:18 | 34.00254 | -78.98347 | 22523 ft | 404 kts | 231° |
| 2026-05-08 23:18 | 33.98267 | -79.00713 | 22159 ft | 407 kts | 231° |
| 2026-05-08 23:18 | 33.96238 | -79.03125 | 21755 ft | 410 kts | 230° |
| 2026-05-08 23:18 | 33.94218 | -79.05522 | 21318 ft | 403 kts | 231° |
| 2026-05-08 23:19 | 33.92253 | -79.07856 | 20925 ft | 398 kts | 231° |
| 2026-05-08 23:19 | 33.90281 | -79.10194 | 20558 ft | 393 kts | 231° |
| 2026-05-08 23:19 | 33.88333 | -79.12504 | 20190 ft | 390 kts | 231° |
| 2026-05-08 23:19 | 33.86430 | -79.14758 | 19832 ft | 387 kts | 230° |
| 2026-05-08 23:20 | 33.84501 | -79.17043 | 19469 ft | 385 kts | 230° |
| 2026-05-08 23:20 | 33.82595 | -79.19297 | 19124 ft | 383 kts | 230° |
| 2026-05-08 23:20 | 33.80720 | -79.21515 | 18782 ft | 381 kts | 230° |
| 2026-05-08 23:20 | 33.78788 | -79.23698 | 18436 ft | 383 kts | 225° |
| 2026-05-08 23:21 | 33.76613 | -79.25591 | 18051 ft | 386 kts | 220° |
| 2026-05-08 23:21 | 33.74320 | -79.27285 | 17630 ft | 387 kts | 217° |
| 2026-05-08 23:21 | 33.72004 | -79.28935 | 17242 ft | 386 kts | 217° |
| 2026-05-08 23:21 | 33.69692 | -79.30597 | 16868 ft | 385 kts | 217° |
| 2026-05-08 23:22 | 33.67451 | -79.32268 | 16501 ft | 378 kts | 218° |
| 2026-05-08 23:22 | 33.65273 | -79.33905 | 16122 ft | 360 kts | 218° |
| 2026-05-08 23:22 | 33.63192 | -79.35472 | 15743 ft | 345 kts | 219° |
| 2026-05-08 23:22 | 33.61179 | -79.36989 | 15363 ft | 339 kts | 219° |
| 2026-05-08 23:23 | 33.59217 | -79.38467 | 15000 ft | 336 kts | 219° |
| 2026-05-08 23:23 | 33.57234 | -79.39959 | 14643 ft | 333 kts | 219° |
| 2026-05-08 23:23 | 33.55274 | -79.41434 | 14290 ft | 331 kts | 219° |
| 2026-05-08 23:23 | 33.53327 | -79.42898 | 13950 ft | 328 kts | 219° |
| 2026-05-08 23:24 | 33.51420 | -79.44326 | 13576 ft | 325 kts | 219° |
| 2026-05-08 23:24 | 33.49509 | -79.45770 | 13155 ft | 322 kts | 219° |
| 2026-05-08 23:24 | 33.47619 | -79.47214 | 12766 ft | 319 kts | 219° |
| 2026-05-08 23:24 | 33.45771 | -79.48630 | 12392 ft | 316 kts | 219° |
| 2026-05-08 23:25 | 33.43915 | -79.50043 | 12022 ft | 315 kts | 218° |
| 2026-05-08 23:25 | 33.42038 | -79.51462 | 11653 ft | 322 kts | 218° |
| 2026-05-08 23:25 | 33.40126 | -79.52899 | 11321 ft | 325 kts | 217° |
| 2026-05-08 23:25 | 33.38227 | -79.54316 | 11242 ft | 318 kts | 217° |
| 2026-05-08 23:26 | 33.36369 | -79.55698 | 10992 ft | 317 kts | 217° |
| 2026-05-08 23:26 | 33.34516 | -79.57084 | 10698 ft | 307 kts | 218° |
| 2026-05-08 23:26 | 33.32747 | -79.58414 | 10392 ft | 294 kts | 218° |
| 2026-05-08 23:26 | 33.31043 | -79.59712 | 9839 ft | 291 kts | 218° |
| 2026-05-08 23:27 | 33.29352 | -79.61001 | 9351 ft | 285 kts | 218° |
| 2026-05-08 23:27 | 33.27685 | -79.62273 | 8866 ft | 280 kts | 218° |
| 2026-05-08 23:27 | 33.26055 | -79.63516 | 8531 ft | 280 kts | 217° |
| 2026-05-08 23:27 | 33.24380 | -79.64792 | 8218 ft | 287 kts | 217° |
| 2026-05-08 23:28 | 33.22706 | -79.66059 | 7932 ft | 284 kts | 217° |
| 2026-05-08 23:28 | 33.21197 | -79.67452 | 7633 ft | 265 kts | 234° |
| 2026-05-08 23:28 | 33.20141 | -79.69237 | 7337 ft | 262 kts | 242° |
| 2026-05-08 23:28 | 33.19253 | -79.71141 | 7052 ft | 262 kts | 246° |
| 2026-05-08 23:29 | 33.18445 | -79.73096 | 6772 ft | 262 kts | 247° |
| 2026-05-08 23:29 | 33.17665 | -79.75035 | 6500 ft | 263 kts | 247° |
| 2026-05-08 23:29 | 33.16876 | -79.77011 | 6212 ft | 263 kts | 246° |
| 2026-05-08 23:29 | 33.16069 | -79.78979 | 5910 ft | 263 kts | 245° |
| 2026-05-08 23:30 | 33.15250 | -79.80923 | 5643 ft | 257 kts | 245° |
| 2026-05-08 23:30 | 33.14457 | -79.82780 | 5334 ft | 249 kts | 245° |
| 2026-05-08 23:30 | 33.13678 | -79.84594 | 5016 ft | 242 kts | 244° |
| 2026-05-08 23:30 | 33.12913 | -79.86373 | 4734 ft | 240 kts | 244° |
| 2026-05-08 23:31 | 33.12137 | -79.88182 | 4468 ft | 247 kts | 244° |
| 2026-05-08 23:31 | 33.11362 | -79.90004 | 4226 ft | 251 kts | 244° |
| 2026-05-08 23:31 | 33.10564 | -79.91883 | 3984 ft | 253 kts | 244° |
| 2026-05-08 23:31 | 33.09779 | -79.93715 | 3732 ft | 243 kts | 243° |
| 2026-05-08 23:32 | 33.09024 | -79.95469 | 3477 ft | 234 kts | 243° |
| 2026-05-08 23:32 | 33.08286 | -79.97187 | 3260 ft | 232 kts | 242° |
| 2026-05-08 23:32 | 33.07567 | -79.98869 | 3003 ft | 229 kts | 242° |
| 2026-05-08 23:32 | 33.06844 | -80.00562 | 2710 ft | 229 kts | 242° |
| 2026-05-08 23:33 | 33.06131 | -80.02270 | 2404 ft | 229 kts | 241° |
| 2026-05-08 23:33 | 33.05676 | -80.03411 | 2199 ft | 229 kts | 242° |
| 2026-05-08 23:33 | 33.04995 | -80.05132 | 1891 ft | 230 kts | 242° |
| 2026-05-08 23:33 | 33.04048 | -80.07483 | 1566 ft | 233 kts | 237° |
| 2026-05-08 23:34 | 33.03482 | -80.08562 | 1483 ft | 220 kts | 234° |
| 2026-05-08 23:34 | 33.02684 | -80.10006 | 1409 ft | 202 kts | 232° |
| 2026-05-08 23:34 | 33.01734 | -80.11065 | 1277 ft | 177 kts | 193° |
| 2026-05-08 23:34 | 33.00143 | -80.11123 | 1287 ft | 173 kts | 173° |
| 2026-05-08 23:35 | 32.99407 | -80.10916 | 1354 ft | 155 kts | 148° |
| 2026-05-08 23:35 | 32.98596 | -80.10249 | 1366 ft | 130 kts | 147° |
| 2026-05-08 23:35 | 32.97832 | -80.09725 | 1346 ft | 130 kts | 147° |
| 2026-05-08 23:35 | 32.97042 | -80.09155 | 1444 ft | 128 kts | 147° |
| 2026-05-08 23:36 | 32.96330 | -80.08621 | 1180 ft | 115 kts | 147° |
| 2026-05-08 23:36 | 32.95636 | -80.08102 | 1054 ft | 121 kts | 147° |
| 2026-05-08 23:36 | 32.94951 | -80.07587 | 929 ft | 118 kts | 146° |
| 2026-05-08 23:36 | 32.94283 | -80.07066 | 777 ft | 112 kts | 143° |
| 2026-05-08 23:37 | 32.93534 | -80.06508 | 663 ft | 141 kts | 146° |
| 2026-05-08 23:37 | 32.92689 | -80.05865 | 477 ft | 141 kts | 142° |
| 2026-05-08 23:37 | 32.91906 | -80.05267 | 230 ft | 128 kts | 148° |
| 2026-05-08 23:37 | 32.91174 | -80.04724 | 81 ft | 125 kts | 144° |
| 2026-05-08 23:38 | 32.90637 | -80.04308 | 53 ft | 78 kts | 146° |
| 2026-05-08 23:38 | 32.90119 | -80.03914 | 55 ft | 82 kts | 146° |
| 2026-05-08 23:38 | 32.89876 | -80.03730 | 52 ft | 30 kts | 149° |
| 2026-05-08 23:38 | 32.89663 | -80.03585 | 46 ft | 38 kts | 167° |
| 2026-05-08 23:39 | 32.89429 | -80.03587 | 45 ft | 21 kts | 181° |
| 2026-05-08 23:39 | 32.89311 | -80.03592 | 45 ft | 19 kts | 182° |
| 2026-05-08 23:39 | 32.89199 | -80.03595 | 45 ft | 0 kts | 181° |
| 2026-05-08 23:39 | 32.89193 | -80.03595 | 45 ft | 0 kts | 181° |
| 2026-05-08 23:40 | 32.89092 | -80.03598 | 45 ft | 21 kts | 180° |
| 2026-05-08 23:40 | 32.88932 | -80.03614 | 41 ft | 26 kts | 188° |
| 2026-05-08 23:40 | 32.88753 | -80.03644 | 36 ft | 25 kts | 188° |
| 2026-05-08 23:41 | 32.88634 | -80.03589 | 37 ft | 16 kts | 183° |
| 2026-05-08 23:41 | 32.88582 | -80.03596 | 36 ft | 5 kts | 181° |
| 2026-05-08 23:41 | 32.88572 | -80.03597 | 36 ft | 0 kts | 180° |